createdAt,value
2023-05-19T00:00:37.178Z,2.72
2023-05-19T00:05:35.372Z,3.22
2023-05-19T00:10:33.030Z,3.20
2023-05-19T00:15:30.397Z,3.03
2023-05-19T00:20:26.790Z,3.00
2023-05-19T00:25:23.219Z,3.38
2023-05-19T00:30:19.686Z,3.13
2023-05-19T00:35:16.762Z,2.90
2023-05-19T00:40:13.586Z,3.42
2023-05-19T00:45:10.627Z,2.30
2023-05-19T00:50:07.336Z,2.22
2023-05-19T00:55:04.176Z,2.30
2023-05-19T01:00:01.001Z,1.88
2023-05-19T01:04:57.457Z,2.13
2023-05-19T01:09:54.052Z,2.65
2023-05-19T01:14:50.864Z,3.20
2023-05-19T01:20:13.576Z,2.20
2023-05-19T01:25:32.942Z,2.08
2023-05-19T01:30:32.499Z,2.42
2023-05-19T01:35:30.619Z,1.90
2023-05-19T01:40:28.815Z,2.20
2023-05-19T01:45:27.821Z,2.50
2023-05-19T01:50:24.542Z,2.20
2023-05-19T01:55:23.313Z,2.55
2023-05-19T02:00:40.129Z,3.45
2023-05-19T02:05:58.757Z,2.45
2023-05-19T02:16:04.504Z,2.88
2023-05-19T02:21:01.841Z,2.30
2023-05-19T02:25:58.246Z,2.22
2023-05-19T02:30:54.688Z,3.03
2023-05-19T02:35:51.128Z,2.95
2023-05-19T02:40:47.832Z,2.20
2023-05-19T02:45:44.234Z,2.78
2023-05-19T02:50:40.699Z,2.35
2023-05-19T02:55:37.430Z,2.88
2023-05-19T03:00:33.991Z,2.33
2023-05-19T03:05:31.129Z,2.63
2023-05-19T03:10:27.926Z,2.50
2023-05-19T03:15:24.434Z,2.33
2023-05-19T03:20:20.846Z,2.20
2023-05-19T03:25:17.583Z,2.13
2023-05-19T03:30:14.660Z,2.30
2023-05-19T03:35:11.166Z,2.80
2023-05-19T03:40:08.551Z,2.13
2023-05-19T03:45:05.380Z,2.13
2023-05-19T03:50:02.246Z,2.22
2023-05-19T03:54:58.707Z,3.03
2023-05-19T03:59:55.112Z,2.03
2023-05-19T04:04:51.624Z,2.20
2023-05-19T04:09:48.623Z,2.35
2023-05-19T04:14:45.130Z,3.92
2023-05-19T04:19:41.641Z,2.50
2023-05-19T04:24:38.025Z,2.78
2023-05-19T04:29:35.641Z,2.97
2023-05-19T04:34:32.144Z,3.15
2023-05-19T04:39:28.534Z,2.78
2023-05-19T04:44:24.971Z,2.50
2023-05-19T04:49:21.365Z,2.10
2023-05-19T04:54:17.784Z,2.85
2023-05-19T04:59:14.235Z,2.97
2023-05-19T05:04:10.684Z,3.05
2023-05-19T05:09:07.788Z,2.55
2023-05-19T05:14:04.382Z,2.97
2023-05-19T05:19:01.816Z,3.05
2023-05-19T05:23:58.585Z,2.53
2023-05-19T05:28:55.066Z,3.10
2023-05-19T05:33:51.630Z,2.85
2023-05-19T05:38:48.062Z,3.33
2023-05-19T05:43:44.493Z,3.10
2023-05-19T05:48:42.699Z,2.90
2023-05-19T05:53:44.594Z,2.65
2023-05-19T05:58:41.179Z,2.80
2023-05-19T06:03:42.808Z,3.03
2023-05-19T06:08:39.281Z,3.50
2023-05-19T06:13:36.625Z,2.63
2023-05-19T06:18:33.218Z,2.30
2023-05-19T06:23:30.630Z,3.72
2023-05-19T06:28:27.129Z,4.00
2023-05-19T06:33:23.968Z,2.17
2023-05-19T06:38:21.481Z,2.53
2023-05-19T06:43:17.971Z,2.20
2023-05-19T06:48:14.403Z,1.88
2023-05-19T06:53:11.070Z,2.25
2023-05-19T06:58:07.979Z,2.20
2023-05-19T07:03:04.536Z,2.50
2023-05-19T07:08:01.701Z,1.95
2023-05-19T07:12:58.566Z,2.08
2023-05-19T07:17:54.956Z,1.23
2023-05-19T07:22:51.347Z,1.90
2023-05-19T07:27:47.788Z,1.70
2023-05-19T07:32:44.238Z,1.85
2023-05-19T07:37:40.624Z,1.73
2023-05-19T07:42:37.144Z,1.55
2023-05-19T07:47:33.606Z,1.70
2023-05-19T07:52:30.027Z,2.15
2023-05-19T07:57:26.405Z,1.55
2023-05-19T08:02:22.871Z,1.55
2023-05-19T08:07:19.269Z,1.33
2023-05-19T08:12:15.663Z,1.38
2023-05-19T08:17:12.192Z,1.40
2023-05-19T08:22:08.914Z,1.35
2023-05-19T08:27:05.674Z,1.40
2023-05-19T08:32:02.746Z,1.25
2023-05-19T08:36:59.746Z,1.37
2023-05-19T08:41:56.242Z,1.23
2023-05-19T08:46:55.201Z,1.33
2023-05-19T08:52:05.399Z,1.00
2023-05-19T08:57:02.231Z,1.15
2023-05-19T09:01:59.138Z,1.60
2023-05-19T09:06:55.510Z,1.60
2023-05-19T09:11:51.907Z,1.20
2023-05-19T09:16:51.055Z,1.55
2023-05-19T09:22:00.111Z,1.52
2023-05-19T09:26:58.506Z,1.25
2023-05-19T09:32:00.902Z,1.60
2023-05-19T09:36:59.799Z,1.17
2023-05-19T09:41:58.392Z,1.23
2023-05-19T09:46:55.328Z,1.30
2023-05-19T09:51:55.125Z,0.77
2023-05-19T09:57:04.846Z,1.05
2023-05-19T10:02:02.556Z,1.17
2023-05-19T10:06:59.832Z,1.27
2023-05-19T10:11:58.112Z,1.00
2023-05-19T10:16:57.011Z,0.73
2023-05-19T10:21:54.004Z,1.25
2023-05-19T10:27:00.943Z,1.02
2023-05-19T10:32:02.530Z,1.00
2023-05-19T10:37:37.687Z,0.80
2023-05-19T10:42:43.301Z,1.00
2023-05-19T10:47:43.455Z,0.90
2023-05-19T10:52:40.499Z,1.17
2023-05-19T10:57:37.084Z,1.17
2023-05-19T11:02:56.173Z,1.10
2023-05-19T11:08:07.753Z,0.95
2023-05-19T11:13:06.613Z,1.30
2023-05-19T11:18:04.664Z,2.03
2023-05-19T11:23:15.254Z,1.17
2023-05-19T11:28:13.249Z,1.30
2023-05-19T11:33:10.614Z,1.33
2023-05-19T11:38:07.596Z,1.20
2023-05-19T11:43:04.208Z,1.63
2023-05-19T11:48:03.408Z,1.00
2023-05-19T11:53:01.666Z,2.15
2023-05-19T12:02:58.832Z,1.30
2023-05-19T12:07:55.644Z,1.25
2023-05-19T12:12:53.294Z,1.17
2023-05-19T12:17:51.159Z,0.93
2023-05-19T12:22:48.085Z,1.10
2023-05-19T12:27:44.916Z,2.13
2023-05-19T12:32:42.593Z,0.97
2023-05-19T12:42:38.219Z,1.50
2023-05-19T12:47:35.891Z,0.90
2023-05-19T12:52:35.316Z,1.00
2023-05-19T12:57:35.486Z,1.90
2023-05-19T13:02:34.207Z,1.15
2023-05-19T13:07:30.761Z,1.00
2023-05-19T13:12:27.539Z,1.33
2023-05-19T13:17:24.602Z,1.10
2023-05-19T13:22:20.968Z,1.30
2023-05-19T13:27:17.306Z,1.70
2023-05-19T13:32:13.648Z,1.00
2023-05-19T13:37:11.421Z,1.30
2023-05-19T13:42:07.982Z,1.23
2023-05-19T13:47:04.693Z,1.00
2023-05-19T13:52:01.108Z,1.23
2023-05-19T13:56:57.470Z,1.10
2023-05-19T14:01:54.016Z,0.90
2023-05-19T14:06:50.535Z,1.10
2023-05-19T14:11:47.797Z,1.30
2023-05-19T14:16:44.214Z,1.27
2023-05-19T14:21:40.924Z,2.10
2023-05-19T14:26:37.303Z,0.90
2023-05-19T14:31:33.678Z,1.02
2023-05-19T14:36:30.055Z,0.98
2023-05-19T14:41:26.680Z,1.10
2023-05-19T14:46:23.125Z,1.20
2023-05-19T14:51:19.698Z,0.95
2023-05-19T14:56:16.097Z,1.33
2023-05-19T15:01:12.549Z,1.63
2023-05-19T15:06:10.604Z,1.20
2023-05-19T15:11:07.413Z,1.00
2023-05-19T15:16:16.189Z,1.40
2023-05-19T15:21:13.615Z,1.00
2023-05-19T15:26:09.982Z,0.93
2023-05-19T15:31:06.419Z,1.00
2023-05-19T15:36:02.859Z,1.00
2023-05-19T15:40:59.244Z,0.98
2023-05-19T15:45:56.122Z,1.10
2023-05-19T15:50:52.497Z,1.00
2023-05-19T15:55:48.816Z,1.20
2023-05-19T16:00:45.321Z,1.15
2023-05-19T16:05:41.688Z,1.13
2023-05-19T16:10:38.169Z,1.20
2023-05-19T16:15:34.501Z,0.90
2023-05-19T16:20:31.125Z,0.90
2023-05-19T16:25:27.557Z,1.10
2023-05-19T16:30:26.201Z,1.10
2023-05-19T16:35:23.353Z,0.80
2023-05-19T16:40:19.961Z,1.10
2023-05-19T16:45:17.457Z,1.50
2023-05-19T16:50:13.950Z,1.30
2023-05-19T16:55:11.050Z,0.98
2023-05-19T17:00:08.205Z,1.20
2023-05-19T17:05:04.633Z,0.90
2023-05-19T17:10:00.957Z,0.95
2023-05-19T17:14:57.387Z,0.85
2023-05-19T17:19:53.767Z,0.75
2023-05-19T17:24:50.090Z,0.82
2023-05-19T17:29:46.411Z,1.17
2023-05-19T17:34:42.770Z,1.20
2023-05-19T17:39:39.203Z,1.20
2023-05-19T17:44:35.577Z,1.00
2023-05-19T17:49:31.935Z,1.02
2023-05-19T17:54:28.867Z,1.05
2023-05-19T17:59:25.560Z,3.10
2023-05-19T18:04:22.345Z,1.50
2023-05-19T18:09:19.740Z,1.83
2023-05-19T18:14:16.057Z,0.98
2023-05-19T18:19:12.488Z,1.25
2023-05-19T18:24:08.871Z,1.20
2023-05-19T18:29:05.601Z,1.17
2023-05-19T18:34:03.269Z,1.48
2023-05-19T18:43:56.533Z,1.33
2023-05-19T18:48:52.976Z,1.42
2023-05-19T18:53:50.112Z,1.20
2023-05-19T18:58:46.455Z,1.00
2023-05-19T19:03:43.656Z,1.20
2023-05-19T19:08:40.018Z,1.67
2023-05-19T19:13:39.568Z,1.27
2023-05-19T19:18:36.518Z,1.50
2023-05-19T19:23:33.119Z,1.17
2023-05-19T19:28:29.696Z,1.02
2023-05-19T19:33:26.068Z,1.30
2023-05-19T19:38:22.431Z,1.00
2023-05-19T19:43:19.052Z,1.00
2023-05-19T19:48:15.403Z,1.33
2023-05-19T19:53:11.720Z,1.20
2023-05-19T19:58:08.058Z,1.20
2023-05-19T20:03:05.764Z,1.20
2023-05-19T20:08:02.525Z,0.98
2023-05-19T20:12:59.411Z,1.02
2023-05-19T20:17:55.963Z,0.90
2023-05-19T20:22:52.322Z,1.35
2023-05-19T20:27:48.693Z,1.10
2023-05-19T20:32:46.530Z,1.20
2023-05-19T20:37:42.977Z,1.23
2023-05-19T20:42:39.746Z,1.08
2023-05-19T20:47:36.387Z,1.13
2023-05-19T20:52:32.953Z,1.15
2023-05-19T20:57:29.321Z,1.20
2023-05-19T21:02:25.826Z,0.98
2023-05-19T21:07:22.289Z,1.10
2023-05-19T21:12:20.571Z,1.30
2023-05-19T21:17:19.257Z,1.10
2023-05-19T21:22:15.649Z,1.30
2023-05-19T21:27:12.130Z,1.60
2023-05-19T21:32:08.591Z,1.30
2023-05-19T21:37:05.453Z,1.40
2023-05-19T21:42:02.350Z,1.48
2023-05-19T21:46:58.913Z,1.50
2023-05-19T21:51:55.626Z,1.52
2023-05-19T21:56:52.019Z,1.38
2023-05-19T22:01:48.896Z,1.10
2023-05-19T22:06:45.507Z,1.33
2023-05-19T22:11:42.048Z,1.65
2023-05-19T22:16:38.575Z,1.35
2023-05-19T22:21:34.996Z,2.00
2023-05-19T22:26:31.413Z,1.50
2023-05-19T22:31:29.417Z,1.20
2023-05-19T22:36:26.030Z,1.60
2023-05-19T22:41:22.630Z,1.20
2023-05-19T22:46:19.152Z,1.63
2023-05-19T22:51:15.704Z,1.65
2023-05-19T22:56:12.542Z,1.58
2023-05-19T23:01:08.974Z,1.85
2023-05-19T23:06:05.568Z,1.63
2023-05-19T23:11:02.471Z,1.50
2023-05-19T23:15:58.948Z,1.70
2023-05-19T23:20:55.391Z,1.52
2023-05-19T23:25:51.741Z,2.20
2023-05-19T23:30:48.110Z,1.30
2023-05-19T23:35:46.264Z,1.70
2023-05-19T23:40:43.344Z,1.38
2023-05-19T23:45:39.720Z,1.60
2023-05-19T23:50:36.129Z,1.33
2023-05-19T23:55:32.666Z,1.40
